sensor_id;sensor_type;location;lat;lon;timestamp;pressure;altitude;pressure_sealevel;temperature;humidity
45403;BME280;47427;51.976;5.326;2022-11-21T00:01:30;100540.41;;;4.34;100.00
45403;BME280;47427;51.976;5.326;2022-11-21T00:04:51;100556.94;;;4.37;100.00
45403;BME280;47427;51.976;5.326;2022-11-21T00:08:16;100561.25;;;4.36;100.00
45403;BME280;47427;51.976;5.326;2022-11-21T00:11:38;100569.84;;;4.35;100.00
45403;BME280;47427;51.976;5.326;2022-11-21T00:15:00;100557.78;;;4.36;100.00
45403;BME280;47427;51.976;5.326;2022-11-21T00:18:22;100543.00;;;4.34;100.00
45403;BME280;47427;51.976;5.326;2022-11-21T00:21:43;100562.38;;;4.41;100.00
45403;BME280;47427;51.976;5.326;2022-11-21T00:25:05;100554.56;;;4.41;100.00
45403;BME280;47427;51.976;5.326;2022-11-21T00:28:27;100568.66;;;4.46;100.00
45403;BME280;47427;51.976;5.326;2022-11-21T00:31:49;100573.72;;;4.43;100.00
45403;BME280;47427;51.976;5.326;2022-11-21T00:35:10;100564.97;;;4.41;100.00
45403;BME280;47427;51.976;5.326;2022-11-21T00:38:32;100561.25;;;4.36;100.00
45403;BME280;47427;51.976;5.326;2022-11-21T00:41:54;100561.13;;;4.33;100.00
45403;BME280;47427;51.976;5.326;2022-11-21T00:45:15;100567.13;;;4.32;100.00
45403;BME280;47427;51.976;5.326;2022-11-21T00:48:37;100549.69;;;4.29;100.00
45403;BME280;47427;51.976;5.326;2022-11-21T00:51:58;100545.72;;;4.18;100.00
45403;BME280;47427;51.976;5.326;2022-11-21T00:55:20;100557.72;;;4.16;100.00
45403;BME280;47427;51.976;5.326;2022-11-21T00:58:41;100552.69;;;4.19;100.00
45403;BME280;47427;51.976;5.326;2022-11-21T01:02:03;100558.13;;;4.25;100.00
45403;BME280;47427;51.976;5.326;2022-11-21T01:05:25;100544.13;;;4.22;100.00
45403;BME280;47427;51.976;5.326;2022-11-21T01:08:47;100540.56;;;4.20;100.00
45403;BME280;47427;51.976;5.326;2022-11-21T01:12:08;100533.41;;;4.14;100.00
45403;BME280;47427;51.976;5.326;2022-11-21T01:15:30;100538.69;;;4.16;100.00
45403;BME280;47427;51.976;5.326;2022-11-21T01:18:52;100536.00;;;4.14;100.00
45403;BME280;47427;51.976;5.326;2022-11-21T01:22:13;100544.13;;;4.22;100.00
45403;BME280;47427;51.976;5.326;2022-11-21T01:25:35;100568.25;;;4.19;100.00
45403;BME280;47427;51.976;5.326;2022-11-21T01:28:58;100550.97;;;4.20;100.00
45403;BME280;47427;51.976;5.326;2022-11-21T01:32:20;100547.03;;;4.10;100.00
45403;BME280;47427;51.976;5.326;2022-11-21T01:35:41;100553.28;;;4.13;100.00
45403;BME280;47427;51.976;5.326;2022-11-21T01:39:05;100554.25;;;4.16;100.00
45403;BME280;47427;51.976;5.326;2022-11-21T01:42:27;100543.03;;;4.17;100.00
45403;BME280;47427;51.976;5.326;2022-11-21T01:45:58;100547.25;;;4.15;100.00
45403;BME280;47427;51.976;5.326;2022-11-21T01:49:28;100544.63;;;3.95;100.00
45403;BME280;47427;51.976;5.326;2022-11-21T01:52:51;100578.88;;;4.06;100.00
45403;BME280;47427;51.976;5.326;2022-11-21T01:56:13;100566.69;;;4.05;100.00
45403;BME280;47427;51.976;5.326;2022-11-21T01:59:43;100555.22;;;4.00;100.00
45403;BME280;47427;51.976;5.326;2022-11-21T02:03:12;100546.41;;;3.96;100.00
45403;BME280;47427;51.976;5.326;2022-11-21T02:06:35;100550.72;;;3.96;100.00
45403;BME280;47427;51.976;5.326;2022-11-21T02:10:00;100540.47;;;3.99;100.00
45403;BME280;47427;51.976;5.326;2022-11-21T02:13:23;100538.09;;;4.03;100.00
45403;BME280;47427;51.976;5.326;2022-11-21T02:16:46;100541.66;;;4.05;100.00
45403;BME280;47427;51.976;5.326;2022-11-21T02:20:17;100534.91;;;3.91;100.00
45403;BME280;47427;51.976;5.326;2022-11-21T02:23:53;100555.53;;;3.88;100.00
45403;BME280;47427;51.976;5.326;2022-11-21T02:27:17;100557.16;;;3.86;100.00
45403;BME280;47427;51.976;5.326;2022-11-21T02:30:41;100554.69;;;3.89;100.00
45403;BME280;47427;51.976;5.326;2022-11-21T02:34:02;100540.19;;;3.93;100.00
45403;BME280;47427;51.976;5.326;2022-11-21T02:37:24;100538.38;;;3.91;100.00
45403;BME280;47427;51.976;5.326;2022-11-21T02:41:06;100529.56;;;3.88;100.00
45403;BME280;47427;51.976;5.326;2022-11-21T02:44:42;100530.38;;;3.87;100.00
45403;BME280;47427;51.976;5.326;2022-11-21T02:48:07;100552.63;;;3.82;100.00
45403;BME280;47427;51.976;5.326;2022-11-21T02:51:29;100540.47;;;3.81;100.00
45403;BME280;47427;51.976;5.326;2022-11-21T02:54:51;100545.91;;;3.85;100.00
45403;BME280;47427;51.976;5.326;2022-11-21T02:58:12;100544.41;;;3.90;100.00
45403;BME280;47427;51.976;5.326;2022-11-21T03:01:34;100538.34;;;3.90;100.00
45403;BME280;47427;51.976;5.326;2022-11-21T03:04:56;100540.97;;;3.91;100.00
45403;BME280;47427;51.976;5.326;2022-11-21T03:08:17;100529.72;;;3.91;100.00
45403;BME280;47427;51.976;5.326;2022-11-21T03:11:39;100521.66;;;3.85;100.00
45403;BME280;47427;51.976;5.326;2022-11-21T03:15:00;100520.22;;;3.74;100.00
45403;BME280;47427;51.976;5.326;2022-11-21T03:18:22;100523.19;;;3.81;100.00
45403;BME280;47427;51.976;5.326;2022-11-21T03:21:44;100534.22;;;3.77;100.00
45403;BME280;47427;51.976;5.326;2022-11-21T03:25:06;100534.44;;;3.46;100.00
45403;BME280;47427;51.976;5.326;2022-11-21T03:28:28;100528.00;;;3.56;100.00
45403;BME280;47427;51.976;5.326;2022-11-21T03:31:49;100528.16;;;3.59;100.00
45403;BME280;47427;51.976;5.326;2022-11-21T03:35:11;100533.34;;;3.59;100.00
45403;BME280;47427;51.976;5.326;2022-11-21T03:38:32;100536.91;;;3.61;100.00
45403;BME280;47427;51.976;5.326;2022-11-21T03:41:54;100529.63;;;3.72;100.00
45403;BME280;47427;51.976;5.326;2022-11-21T03:45:16;100532.22;;;3.72;100.00
45403;BME280;47427;51.976;5.326;2022-11-21T03:48:37;100526.31;;;3.74;100.00
45403;BME280;47427;51.976;5.326;2022-11-21T03:51:59;100514.38;;;3.78;100.00
45403;BME280;47427;51.976;5.326;2022-11-21T03:55:21;100516.75;;;3.73;100.00
45403;BME280;47427;51.976;5.326;2022-11-21T03:59:03;100528.84;;;3.55;100.00
45403;BME280;47427;51.976;5.326;2022-11-21T04:02:24;100540.09;;;3.21;100.00
45403;BME280;47427;51.976;5.326;2022-11-21T04:05:46;100523.56;;;3.19;100.00
45403;BME280;47427;51.976;5.326;2022-11-21T04:09:07;100515.88;;;3.20;100.00
45403;BME280;47427;51.976;5.326;2022-11-21T04:12:29;100505.59;;;2.88;100.00
45403;BME280;47427;51.976;5.326;2022-11-21T04:15:50;100509.88;;;2.71;100.00
45403;BME280;47427;51.976;5.326;2022-11-21T04:19:12;100499.13;;;2.63;100.00
45403;BME280;47427;51.976;5.326;2022-11-21T04:22:34;100510.72;;;2.70;100.00
45403;BME280;47427;51.976;5.326;2022-11-21T04:25:55;100511.84;;;2.75;100.00
45403;BME280;47427;51.976;5.326;2022-11-21T04:29:17;100497.66;;;2.85;100.00
45403;BME280;47427;51.976;5.326;2022-11-21T04:32:39;100504.44;;;2.99;100.00
45403;BME280;47427;51.976;5.326;2022-11-21T04:36:00;100494.44;;;2.89;100.00
45403;BME280;47427;51.976;5.326;2022-11-21T04:39:22;100492.28;;;2.64;100.00
45403;BME280;47427;51.976;5.326;2022-11-21T04:42:45;100493.06;;;2.79;100.00
45403;BME280;47427;51.976;5.326;2022-11-21T04:46:10;100498.69;;;2.88;100.00
45403;BME280;47427;51.976;5.326;2022-11-21T04:49:31;100497.22;;;2.93;100.00
45403;BME280;47427;51.976;5.326;2022-11-21T04:52:55;100488.28;;;2.70;100.00
45403;BME280;47427;51.976;5.326;2022-11-21T04:56:17;100489.06;;;2.86;100.00
45403;BME280;47427;51.976;5.326;2022-11-21T04:59:59;100480.25;;;2.82;100.00
45403;BME280;47427;51.976;5.326;2022-11-21T05:03:20;100490.38;;;2.94;100.00
45403;BME280;47427;51.976;5.326;2022-11-21T05:06:42;100492.00;;;2.92;100.00
45403;BME280;47427;51.976;5.326;2022-11-21T05:10:06;100475.00;;;2.80;100.00
45403;BME280;47427;51.976;5.326;2022-11-21T05:13:27;100473.75;;;2.90;100.00
45403;BME280;47427;51.976;5.326;2022-11-21T05:16:49;100459.47;;;2.98;100.00
45403;BME280;47427;51.976;5.326;2022-11-21T05:20:11;100454.25;;;2.97;100.00
45403;BME280;47427;51.976;5.326;2022-11-21T05:23:33;100454.09;;;2.94;100.00
45403;BME280;47427;51.976;5.326;2022-11-21T05:26:55;100463.66;;;2.78;100.00
45403;BME280;47427;51.976;5.326;2022-11-21T05:30:16;100457.25;;;2.88;100.00
45403;BME280;47427;51.976;5.326;2022-11-21T05:33:38;100456.00;;;2.98;100.00
45403;BME280;47427;51.976;5.326;2022-11-21T05:37:00;100444.28;;;3.22;100.00
45403;BME280;47427;51.976;5.326;2022-11-21T05:40:23;100448.19;;;3.14;100.00
45403;BME280;47427;51.976;5.326;2022-11-21T05:43:44;100440.34;;;3.31;100.00
45403;BME280;47427;51.976;5.326;2022-11-21T05:47:06;100437.09;;;3.53;100.00
45403;BME280;47427;51.976;5.326;2022-11-21T05:50:27;100441.41;;;3.34;100.00
45403;BME280;47427;51.976;5.326;2022-11-21T05:53:49;100437.91;;;3.34;100.00
45403;BME280;47427;51.976;5.326;2022-11-21T05:57:11;100437.97;;;3.35;100.00
45403;BME280;47427;51.976;5.326;2022-11-21T06:00:32;100437.25;;;3.20;100.00
45403;BME280;47427;51.976;5.326;2022-11-21T06:03:54;100433.16;;;3.43;100.00
45403;BME280;47427;51.976;5.326;2022-11-21T06:07:15;100435.09;;;3.47;100.00
45403;BME280;47427;51.976;5.326;2022-11-21T06:10:36;100428.13;;;3.46;100.00
45403;BME280;47427;51.976;5.326;2022-11-21T06:14:23;100417.09;;;3.50;100.00
45403;BME280;47427;51.976;5.326;2022-11-21T06:17:45;100420.41;;;3.47;100.00
45403;BME280;47427;51.976;5.326;2022-11-21T06:21:21;100412.03;;;3.53;100.00
45403;BME280;47427;51.976;5.326;2022-11-21T06:24:43;100404.03;;;3.48;100.00
45403;BME280;47427;51.976;5.326;2022-11-21T06:28:32;100403.44;;;3.54;100.00
45403;BME280;47427;51.976;5.326;2022-11-21T06:31:56;100414.91;;;3.41;100.00
45403;BME280;47427;51.976;5.326;2022-11-21T06:35:18;100395.81;;;3.21;100.00
45403;BME280;47427;51.976;5.326;2022-11-21T06:38:40;100395.25;;;3.27;100.00
45403;BME280;47427;51.976;5.326;2022-11-21T06:42:01;100381.91;;;3.37;100.00
45403;BME280;47427;51.976;5.326;2022-11-21T06:45:23;100375.97;;;3.40;100.00
45403;BME280;47427;51.976;5.326;2022-11-21T06:48:45;100377.28;;;3.32;100.00
45403;BME280;47427;51.976;5.326;2022-11-21T06:52:06;100381.69;;;3.15;100.00
45403;BME280;47427;51.976;5.326;2022-11-21T06:55:28;100362.88;;;3.01;100.00
45403;BME280;47427;51.976;5.326;2022-11-21T06:58:51;100368.78;;;2.98;100.00
45403;BME280;47427;51.976;5.326;2022-11-21T07:02:13;100371.47;;;3.18;100.00
45403;BME280;47427;51.976;5.326;2022-11-21T07:05:35;100368.94;;;3.37;100.00
45403;BME280;47427;51.976;5.326;2022-11-21T07:08:56;100376.81;;;3.58;100.00
45403;BME280;47427;51.976;5.326;2022-11-21T07:12:18;100372.63;;;3.42;100.00
45403;BME280;47427;51.976;5.326;2022-11-21T07:16:06;100375.97;;;3.40;100.00
45403;BME280;47427;51.976;5.326;2022-11-21T07:19:28;100377.34;;;3.51;100.00
45403;BME280;47427;51.976;5.326;2022-11-21T07:22:55;100371.63;;;3.58;100.00
45403;BME280;47427;51.976;5.326;2022-11-21T07:26:17;100366.63;;;3.43;100.00
45403;BME280;47427;51.976;5.326;2022-11-21T07:29:39;100372.34;;;3.74;100.00
45403;BME280;47427;51.976;5.326;2022-11-21T07:33:03;100360.69;;;3.83;100.00
45403;BME280;47427;51.976;5.326;2022-11-21T07:36:25;100357.81;;;3.97;100.00
45403;BME280;47427;51.976;5.326;2022-11-21T07:39:47;100362.25;;;3.99;100.00
45403;BME280;47427;51.976;5.326;2022-11-21T07:43:09;100355.50;;;4.03;100.00
45403;BME280;47427;51.976;5.326;2022-11-21T07:46:31;100354.66;;;4.23;100.00
45403;BME280;47427;51.976;5.326;2022-11-21T07:49:53;100371.00;;;4.21;100.00
45403;BME280;47427;51.976;5.326;2022-11-21T07:53:15;100364.22;;;4.24;100.00
45403;BME280;47427;51.976;5.326;2022-11-21T07:56:36;100366.69;;;4.41;100.00
45403;BME280;47427;51.976;5.326;2022-11-21T07:59:58;100359.81;;;4.43;100.00
45403;BME280;47427;51.976;5.326;2022-11-21T08:03:19;100367.34;;;4.37;100.00
45403;BME280;47427;51.976;5.326;2022-11-21T08:06:41;100342.66;;;4.06;100.00
45403;BME280;47427;51.976;5.326;2022-11-21T08:10:03;100349.69;;;4.08;100.00
45403;BME280;47427;51.976;5.326;2022-11-21T08:13:24;100337.78;;;4.13;100.00
45403;BME280;47427;51.976;5.326;2022-11-21T08:16:46;100328.78;;;4.05;100.00
45403;BME280;47427;51.976;5.326;2022-11-21T08:20:08;100334.44;;;4.16;100.00
45403;BME280;47427;51.976;5.326;2022-11-21T08:23:31;100336.00;;;4.12;100.00
45403;BME280;47427;51.976;5.326;2022-11-21T08:26:52;100337.50;;;4.07;100.00
45403;BME280;47427;51.976;5.326;2022-11-21T08:30:14;100330.34;;;4.21;100.00
45403;BME280;47427;51.976;5.326;2022-11-21T08:33:36;100320.53;;;4.35;100.00
45403;BME280;47427;51.976;5.326;2022-11-21T08:36:58;100326.75;;;4.60;100.00
45403;BME280;47427;51.976;5.326;2022-11-21T08:40:22;100312.56;;;4.72;100.00
45403;BME280;47427;51.976;5.326;2022-11-21T08:43:45;100300.84;;;4.82;100.00
45403;BME280;47427;51.976;5.326;2022-11-21T08:47:08;100288.56;;;4.57;100.00
45403;BME280;47427;51.976;5.326;2022-11-21T08:50:30;100278.84;;;4.74;100.00
45403;BME280;47427;51.976;5.326;2022-11-21T08:53:53;100266.41;;;5.10;100.00
45403;BME280;47427;51.976;5.326;2022-11-21T08:57:16;100278.72;;;5.37;100.00
45403;BME280;47427;51.976;5.326;2022-11-21T09:01:19;100287.28;;;6.05;100.00
45403;BME280;47427;51.976;5.326;2022-11-21T09:04:42;100272.31;;;6.23;100.00
45403;BME280;47427;51.976;5.326;2022-11-21T09:08:04;100270.91;;;6.60;100.00
45403;BME280;47427;51.976;5.326;2022-11-21T09:11:27;100262.91;;;6.54;100.00
45403;BME280;47427;51.976;5.326;2022-11-21T09:14:50;100270.50;;;6.48;100.00
45403;BME280;47427;51.976;5.326;2022-11-21T09:18:51;100261.22;;;6.29;100.00
45403;BME280;47427;51.976;5.326;2022-11-21T09:22:13;100246.81;;;6.15;100.00
45403;BME280;47427;51.976;5.326;2022-11-21T09:25:34;100247.75;;;6.17;100.00
45403;BME280;47427;51.976;5.326;2022-11-21T09:28:56;100253.44;;;6.31;100.00
45403;BME280;47427;51.976;5.326;2022-11-21T09:32:19;100245.47;;;6.53;100.00
45403;BME280;47427;51.976;5.326;2022-11-21T09:35:42;100232.19;;;6.45;100.00
45403;BME280;47427;51.976;5.326;2022-11-21T09:39:04;100237.63;;;6.51;100.00
45403;BME280;47427;51.976;5.326;2022-11-21T09:46:16;100219.00;;;6.39;100.00
45403;BME280;47427;51.976;5.326;2022-11-21T09:49:44;100232.81;;;6.64;100.00
45403;BME280;47427;51.976;5.326;2022-11-21T09:53:15;100218.88;;;6.90;100.00
45403;BME280;47427;51.976;5.326;2022-11-21T09:56:41;100217.34;;;6.97;100.00
45403;BME280;47427;51.976;5.326;2022-11-21T10:00:23;100214.84;;;6.73;100.00
45403;BME280;47427;51.976;5.326;2022-11-21T10:03:48;100215.44;;;6.37;100.00
45403;BME280;47427;51.976;5.326;2022-11-21T10:07:21;100204.81;;;6.58;100.00
45403;BME280;47427;51.976;5.326;2022-11-21T10:22:54;100192.03;;;8.55;97.40
45403;BME280;47427;51.976;5.326;2022-11-21T10:30:11;100183.75;;;9.14;94.35
45403;BME280;47427;51.976;5.326;2022-11-21T10:33:34;100173.38;;;9.18;93.64
45403;BME280;47427;51.976;5.326;2022-11-21T10:37:36;100159.53;;;9.69;92.45
45403;BME280;47427;51.976;5.326;2022-11-21T10:41:14;100158.13;;;8.97;92.77
45403;BME280;47427;51.976;5.326;2022-11-21T10:44:37;100157.38;;;8.63;94.87
45403;BME280;47427;51.976;5.326;2022-11-21T10:48:18;100157.41;;;8.29;96.50
45403;BME280;47427;51.976;5.326;2022-11-21T10:52:16;100149.16;;;9.27;94.15
45403;BME280;47427;51.976;5.326;2022-11-21T10:56:06;100144.47;;;9.56;93.50
45403;BME280;47427;51.976;5.326;2022-11-21T10:59:29;100134.00;;;9.56;93.81
45403;BME280;47427;51.976;5.326;2022-11-21T11:03:09;100119.88;;;9.49;93.78
45403;BME280;47427;51.976;5.326;2022-11-21T11:06:38;100123.38;;;9.48;92.92
45403;BME280;47427;51.976;5.326;2022-11-21T11:10:23;100114.81;;;9.57;93.37
45403;BME280;47427;51.976;5.326;2022-11-21T11:14:13;100107.44;;;9.36;92.09
45403;BME280;47427;51.976;5.326;2022-11-21T11:17:37;100106.81;;;9.05;92.37
45403;BME280;47427;51.976;5.326;2022-11-21T11:24:43;100107.34;;;8.87;93.81
45403;BME280;47427;51.976;5.326;2022-11-21T11:28:12;100097.03;;;9.41;92.12
45403;BME280;47427;51.976;5.326;2022-11-21T11:35:31;100093.03;;;10.71;87.85
45403;BME280;47427;51.976;5.326;2022-11-21T11:38:57;100090.94;;;10.45;85.86
45403;BME280;47427;51.976;5.326;2022-11-21T11:50:21;100058.63;;;10.48;85.52
45403;BME280;47427;51.976;5.326;2022-11-21T11:53:52;100046.19;;;11.00;83.18
45403;BME280;47427;51.976;5.326;2022-11-21T11:57:16;100032.94;;;11.82;80.34
45403;BME280;47427;51.976;5.326;2022-11-21T12:00:49;100025.88;;;13.43;73.66
45403;BME280;47427;51.976;5.326;2022-11-21T12:07:43;100001.94;;;16.07;63.79
45403;BME280;47427;51.976;5.326;2022-11-21T12:11:44;99993.59;;;16.45;59.33
45403;BME280;47427;51.976;5.326;2022-11-21T12:15:46;99983.03;;;16.42;62.12
45403;BME280;47427;51.976;5.326;2022-11-21T12:19:13;99969.59;;;16.59;58.32
45403;BME280;47427;51.976;5.326;2022-11-21T12:22:35;99985.66;;;15.51;60.35
45403;BME280;47427;51.976;5.326;2022-11-21T12:46:23;99932.50;;;11.05;75.55
45403;BME280;47427;51.976;5.326;2022-11-21T12:50:01;99920.84;;;10.77;76.44
45403;BME280;47427;51.976;5.326;2022-11-21T12:54:08;99916.53;;;10.82;76.67
45403;BME280;47427;51.976;5.326;2022-11-21T13:02:04;99874.56;;;10.09;79.21
45403;BME280;47427;51.976;5.326;2022-11-21T13:05:36;99885.31;;;10.28;78.86
45403;BME280;47427;51.976;5.326;2022-11-21T13:09:03;99883.59;;;10.30;78.87
45403;BME280;47427;51.976;5.326;2022-11-21T13:12:43;99879.28;;;10.33;79.10
45403;BME280;47427;51.976;5.326;2022-11-21T13:16:10;99859.81;;;10.16;78.57
45403;BME280;47427;51.976;5.326;2022-11-21T13:23:42;99851.53;;;10.54;78.48
45403;BME280;47427;51.976;5.326;2022-11-21T13:27:06;99838.25;;;11.44;76.80
45403;BME280;47427;51.976;5.326;2022-11-21T13:30:28;99827.25;;;12.14;73.12
45403;BME280;47427;51.976;5.326;2022-11-21T13:33:50;99811.56;;;12.43;71.65
45403;BME280;47427;51.976;5.326;2022-11-21T13:45:45;99793.28;;;10.92;75.52
45403;BME280;47427;51.976;5.326;2022-11-21T13:49:17;99769.22;;;11.65;74.14
45403;BME280;47427;51.976;5.326;2022-11-21T13:52:54;99771.66;;;11.31;74.99
45403;BME280;47427;51.976;5.326;2022-11-21T14:08:24;99759.13;;;9.95;80.92
45403;BME280;47427;51.976;5.326;2022-11-21T14:15:51;99753.06;;;9.31;84.03
45403;BME280;47427;51.976;5.326;2022-11-21T14:19:19;99737.47;;;8.76;86.22
45403;BME280;47427;51.976;5.326;2022-11-21T14:26:18;99733.63;;;8.54;87.71
45403;BME280;47427;51.976;5.326;2022-11-21T14:29:41;99728.91;;;8.33;88.66
45403;BME280;47427;51.976;5.326;2022-11-21T14:33:26;99717.44;;;8.27;89.47
45403;BME280;47427;51.976;5.326;2022-11-21T14:36:48;99715.97;;;8.39;89.45
45403;BME280;47427;51.976;5.326;2022-11-21T14:40:30;99709.66;;;8.30;89.31
45403;BME280;47427;51.976;5.326;2022-11-21T14:47:19;99713.84;;;8.20;90.82
45403;BME280;47427;51.976;5.326;2022-11-21T14:50:42;99708.41;;;8.08;91.21
45403;BME280;47427;51.976;5.326;2022-11-21T14:54:04;99698.84;;;8.10;91.15
45403;BME280;47427;51.976;5.326;2022-11-21T14:57:46;99685.56;;;7.97;92.27
45403;BME280;47427;51.976;5.326;2022-11-21T15:01:29;99665.59;;;7.98;92.12
45403;BME280;47427;51.976;5.326;2022-11-21T15:04:53;99680.16;;;7.87;92.65
45403;BME280;47427;51.976;5.326;2022-11-21T15:08:22;99679.06;;;7.74;93.08
45403;BME280;47427;51.976;5.326;2022-11-21T15:15:24;99665.91;;;7.69;92.91
45403;BME280;47427;51.976;5.326;2022-11-21T15:18:48;99666.53;;;7.56;92.83
45403;BME280;47427;51.976;5.326;2022-11-21T15:22:33;99650.06;;;7.58;92.65
45403;BME280;47427;51.976;5.326;2022-11-21T15:25:56;99638.63;;;7.52;92.52
45403;BME280;47427;51.976;5.326;2022-11-21T15:29:20;99637.59;;;7.44;92.72
45403;BME280;47427;51.976;5.326;2022-11-21T15:36:24;99615.91;;;7.46;92.34
45403;BME280;47427;51.976;5.326;2022-11-21T15:39:48;99607.97;;;7.42;92.37
45403;BME280;47427;51.976;5.326;2022-11-21T15:43:45;99599.13;;;7.32;92.58
45403;BME280;47427;51.976;5.326;2022-11-21T15:47:08;99596.50;;;7.32;92.26
45403;BME280;47427;51.976;5.326;2022-11-21T15:50:29;99579.81;;;7.24;92.35
45403;BME280;47427;51.976;5.326;2022-11-21T15:53:51;99574.50;;;7.18;92.35
45403;BME280;47427;51.976;5.326;2022-11-21T15:57:13;99573.75;;;7.25;92.23
45403;BME280;47427;51.976;5.326;2022-11-21T16:00:35;99568.53;;;7.25;91.60
45403;BME280;47427;51.976;5.326;2022-11-21T16:03:59;99552.75;;;7.17;92.01
45403;BME280;47427;51.976;5.326;2022-11-21T16:07:21;99542.31;;;7.17;91.69
45403;BME280;47427;51.976;5.326;2022-11-21T16:10:43;99537.84;;;7.11;91.65
45403;BME280;47427;51.976;5.326;2022-11-21T16:14:14;99550.06;;;7.12;91.78
45403;BME280;47427;51.976;5.326;2022-11-21T16:17:36;99543.72;;;7.01;91.77
45403;BME280;47427;51.976;5.326;2022-11-21T16:21:10;99547.44;;;7.12;91.37
45403;BME280;47427;51.976;5.326;2022-11-21T16:24:32;99549.22;;;7.15;91.23
45403;BME280;47427;51.976;5.326;2022-11-21T16:27:54;99550.06;;;7.12;91.17
45403;BME280;47427;51.976;5.326;2022-11-21T16:31:24;99540.69;;;7.24;90.53
45403;BME280;47427;51.976;5.326;2022-11-21T16:34:46;99540.41;;;7.08;91.08
45403;BME280;47427;51.976;5.326;2022-11-21T16:38:11;99529.19;;;7.12;91.21
45403;BME280;47427;51.976;5.326;2022-11-21T16:41:34;99522.19;;;7.11;90.53
45403;BME280;47427;51.976;5.326;2022-11-21T16:44:55;99514.94;;;6.95;91.80
45403;BME280;47427;51.976;5.326;2022-11-21T16:48:21;99512.81;;;6.74;93.37
45403;BME280;47427;51.976;5.326;2022-11-21T16:51:43;99495.47;;;6.78;93.82
45403;BME280;47427;51.976;5.326;2022-11-21T16:55:05;99502.38;;;6.76;93.89
45403;BME280;47427;51.976;5.326;2022-11-21T16:58:26;99494.22;;;6.57;95.53
45403;BME280;47427;51.976;5.326;2022-11-21T17:02:13;99480.09;;;6.46;96.51
45403;BME280;47427;51.976;5.326;2022-11-21T17:05:34;99475.88;;;6.53;97.01
45403;BME280;47427;51.976;5.326;2022-11-21T17:08:58;99477.75;;;6.60;96.97
45403;BME280;47427;51.976;5.326;2022-11-21T17:12:21;99471.56;;;6.55;97.10
45403;BME280;47427;51.976;5.326;2022-11-21T17:15:43;99460.28;;;6.54;97.72
45403;BME280;47427;51.976;5.326;2022-11-21T17:19:05;99458.34;;;6.45;98.08
45403;BME280;47427;51.976;5.326;2022-11-21T17:22:27;99442.72;;;6.44;98.37
45403;BME280;47427;51.976;5.326;2022-11-21T17:25:48;99424.69;;;6.55;97.86
45403;BME280;47427;51.976;5.326;2022-11-21T17:29:10;99420.53;;;6.66;97.43
45403;BME280;47427;51.976;5.326;2022-11-21T17:32:33;99411.66;;;6.55;97.35
45403;BME280;47427;51.976;5.326;2022-11-21T17:35:55;99415.16;;;6.58;97.77
45403;BME280;47427;51.976;5.326;2022-11-21T17:39:16;99411.84;;;6.65;97.40
45403;BME280;47427;51.976;5.326;2022-11-21T17:42:38;99406.56;;;6.62;97.20
45403;BME280;47427;51.976;5.326;2022-11-21T17:46:04;99392.00;;;6.72;96.68
45403;BME280;47427;51.976;5.326;2022-11-21T17:49:26;99379.72;;;6.66;96.90
45403;BME280;47427;51.976;5.326;2022-11-21T17:52:50;99383.16;;;6.64;97.04
45403;BME280;47427;51.976;5.326;2022-11-21T17:56:18;99369.84;;;6.48;97.42
45403;BME280;47427;51.976;5.326;2022-11-21T17:59:40;99365.50;;;6.49;97.64
45403;BME280;47427;51.976;5.326;2022-11-21T18:03:02;99360.16;;;6.43;97.71
45403;BME280;47427;51.976;5.326;2022-11-21T18:06:26;99375.06;;;6.50;98.09
45403;BME280;47427;51.976;5.326;2022-11-21T18:09:48;99364.66;;;6.50;97.99
45403;BME280;47427;51.976;5.326;2022-11-21T18:13:10;99365.66;;;6.58;97.77
45403;BME280;47427;51.976;5.326;2022-11-21T18:16:32;99358.53;;;6.46;98.40
45403;BME280;47427;51.976;5.326;2022-11-21T18:19:54;99352.56;;;6.54;97.94
45403;BME280;47427;51.976;5.326;2022-11-21T18:23:15;99361.50;;;6.68;97.89
45403;BME280;47427;51.976;5.326;2022-11-21T18:26:38;99346.59;;;6.59;97.71
45403;BME280;47427;51.976;5.326;2022-11-21T18:30:00;99352.53;;;6.52;98.12
45403;BME280;47427;51.976;5.326;2022-11-21T18:33:21;99332.75;;;6.62;97.64
45403;BME280;47427;51.976;5.326;2022-11-21T18:36:43;99331.91;;;6.66;97.47
45403;BME280;47427;51.976;5.326;2022-11-21T18:40:05;99315.38;;;6.62;97.44
45403;BME280;47427;51.976;5.326;2022-11-21T18:43:27;99304.06;;;6.62;97.73
45403;BME280;47427;51.976;5.326;2022-11-21T18:46:49;99302.28;;;6.59;97.90
45403;BME280;47427;51.976;5.326;2022-11-21T18:50:10;99301.25;;;6.49;98.31
45403;BME280;47427;51.976;5.326;2022-11-21T18:53:32;99304.91;;;6.61;97.76
45403;BME280;47427;51.976;5.326;2022-11-21T18:56:54;99300.69;;;6.67;97.80
45403;BME280;47427;51.976;5.326;2022-11-21T19:00:17;99295.44;;;6.66;97.41
45403;BME280;47427;51.976;5.326;2022-11-21T19:03:39;99288.56;;;6.69;96.96
45403;BME280;47427;51.976;5.326;2022-11-21T19:07:00;99282.47;;;6.69;97.15
45403;BME280;47427;51.976;5.326;2022-11-21T19:10:22;99284.28;;;6.73;96.72
45403;BME280;47427;51.976;5.326;2022-11-21T19:13:43;99278.97;;;6.67;96.88
45403;BME280;47427;51.976;5.326;2022-11-21T19:17:05;99278.84;;;6.59;97.11
45403;BME280;47427;51.976;5.326;2022-11-21T19:20:26;99264.13;;;6.63;97.05
45403;BME280;47427;51.976;5.326;2022-11-21T19:23:48;99279.09;;;6.75;96.99
45403;BME280;47427;51.976;5.326;2022-11-21T19:27:09;99276.31;;;6.64;97.45
45403;BME280;47427;51.976;5.326;2022-11-21T19:30:31;99270.78;;;6.45;98.70
45403;BME280;47427;51.976;5.326;2022-11-21T19:33:52;99264.72;;;6.46;99.11
45403;BME280;47427;51.976;5.326;2022-11-21T19:37:14;99262.25;;;6.54;99.65
45403;BME280;47427;51.976;5.326;2022-11-21T19:40:36;99261.91;;;6.34;100.00
45403;BME280;47427;51.976;5.326;2022-11-21T19:44:17;99264.56;;;6.37;100.00
45403;BME280;47427;51.976;5.326;2022-11-21T19:47:38;99256.56;;;6.26;100.00
45403;BME280;47427;51.976;5.326;2022-11-21T19:51:10;99248.66;;;6.22;100.00